createdAt,value
2022-10-21T00:04:19.679Z,3.28
2022-10-21T00:09:50.721Z,3.33
2022-10-21T00:15:21.638Z,3.13
2022-10-21T00:20:52.647Z,3.45
2022-10-21T00:26:23.568Z,3.50
2022-10-21T00:31:54.809Z,3.40
2022-10-21T00:37:25.868Z,3.30
2022-10-21T00:42:57.591Z,3.70
2022-10-21T00:48:51.933Z,3.58
2022-10-21T00:54:24.091Z,3.58
2022-10-21T00:59:58.686Z,3.90
2022-10-21T01:05:31.058Z,3.70
2022-10-21T01:11:02.534Z,3.47
2022-10-21T01:16:48.648Z,3.58
2022-10-21T01:22:50.857Z,3.55
2022-10-21T01:29:02.444Z,3.45
2022-10-21T01:34:38.246Z,3.70
2022-10-21T01:40:15.203Z,3.10
2022-10-21T01:45:57.252Z,3.30
2022-10-21T01:51:29.314Z,3.72
2022-10-21T01:57:02.028Z,3.60
2022-10-21T02:02:35.439Z,3.67
2022-10-21T02:08:07.728Z,3.63
2022-10-21T02:13:51.875Z,3.42
2022-10-21T02:19:22.823Z,3.13
2022-10-21T02:25:01.098Z,3.22
2022-10-21T02:30:39.106Z,3.67
2022-10-21T02:36:45.394Z,3.63
2022-10-21T02:42:24.718Z,3.78
2022-10-21T02:47:56.295Z,3.90
2022-10-21T02:53:27.445Z,3.83
2022-10-21T02:58:58.606Z,3.42
2022-10-21T03:04:29.868Z,4.13
2022-10-21T03:10:00.555Z,3.60
2022-10-21T03:15:31.650Z,3.72
2022-10-21T03:21:02.853Z,4.18
2022-10-21T03:26:33.810Z,4.20
2022-10-21T03:32:05.129Z,3.78
2022-10-21T03:37:36.327Z,3.83
2022-10-21T03:43:07.220Z,4.00
2022-10-21T03:48:38.540Z,3.63
2022-10-21T03:54:09.447Z,3.75
2022-10-21T03:59:40.366Z,3.92
2022-10-21T04:05:12.001Z,4.28
2022-10-21T04:10:42.906Z,3.65
2022-10-21T04:16:17.347Z,4.28
2022-10-21T04:21:48.414Z,4.35
2022-10-21T04:27:19.437Z,3.97
2022-10-21T04:32:51.099Z,4.28
2022-10-21T04:38:26.686Z,3.97
2022-10-21T04:43:57.829Z,4.80
2022-10-21T04:49:29.053Z,4.60
2022-10-21T04:54:59.912Z,4.35
2022-10-21T05:00:30.951Z,4.90
2022-10-21T05:06:01.933Z,4.35
2022-10-21T05:11:32.859Z,4.47
2022-10-21T05:17:04.270Z,4.30
2022-10-21T05:22:35.206Z,4.82
2022-10-21T05:28:06.327Z,4.78
2022-10-21T05:33:37.213Z,4.95
2022-10-21T05:39:11.584Z,13.43
2022-10-21T05:44:43.065Z,19.80
2022-10-21T05:50:14.425Z,13.50
2022-10-21T05:55:45.354Z,12.32
2022-10-21T06:01:16.161Z,10.80
2022-10-21T06:06:47.714Z,9.57
2022-10-21T06:12:19.053Z,9.95
2022-10-21T06:17:51.877Z,9.60
2022-10-21T06:23:23.375Z,9.10
2022-10-21T06:28:54.720Z,8.20
2022-10-21T06:34:25.963Z,8.55
2022-10-21T06:39:57.471Z,7.32
2022-10-21T06:45:28.679Z,7.63
2022-10-21T06:51:01.802Z,7.80
2022-10-21T06:56:32.986Z,6.97
2022-10-21T07:02:03.878Z,6.78
2022-10-21T07:07:35.068Z,6.30
2022-10-21T07:13:06.457Z,6.85
2022-10-21T07:18:40.535Z,5.97
2022-10-21T07:24:16.294Z,5.55
2022-10-21T07:29:48.874Z,6.10
2022-10-21T07:35:19.712Z,5.85
2022-10-21T07:40:50.754Z,6.05
2022-10-21T07:46:22.824Z,6.22
2022-10-21T07:51:54.471Z,5.68
2022-10-21T07:57:25.978Z,5.65
2022-10-21T08:02:57.542Z,5.15
2022-10-21T08:08:28.809Z,5.35
2022-10-21T08:14:00.602Z,5.05
2022-10-21T08:19:31.597Z,5.00
2022-10-21T08:25:03.128Z,5.03
2022-10-21T08:30:34.070Z,4.93
2022-10-21T08:36:06.735Z,4.63
2022-10-21T08:41:44.091Z,4.10
2022-10-21T08:47:31.243Z,4.55
2022-10-21T08:53:15.443Z,4.65
2022-10-21T08:58:48.827Z,3.92
2022-10-21T09:04:27.688Z,3.97
2022-10-21T09:10:07.467Z,4.70
2022-10-21T09:15:53.923Z,3.78
2022-10-21T09:21:39.647Z,3.90
2022-10-21T09:27:11.196Z,4.93
2022-10-21T09:32:43.482Z,3.70
2022-10-21T09:38:48.594Z,3.63
2022-10-21T09:44:23.365Z,4.22
2022-10-21T09:50:07.240Z,4.15
2022-10-21T10:01:16.987Z,3.42
2022-10-21T10:06:48.424Z,3.47
2022-10-21T10:12:25.104Z,3.25
2022-10-21T10:17:57.599Z,3.50
2022-10-21T10:23:28.869Z,3.40
2022-10-21T10:29:10.139Z,3.17
2022-10-21T10:34:53.446Z,3.50
2022-10-21T10:40:42.062Z,3.15
2022-10-21T10:46:20.347Z,3.65
2022-10-21T10:52:17.214Z,3.42
2022-10-21T10:58:05.888Z,3.47
2022-10-21T11:03:55.645Z,3.03
2022-10-21T11:09:27.591Z,3.47
2022-10-21T11:14:59.914Z,3.60
2022-10-21T11:20:39.110Z,3.55
2022-10-21T11:26:20.106Z,3.25
2022-10-21T11:32:36.101Z,3.40
2022-10-21T11:38:30.858Z,3.45
2022-10-21T11:44:13.907Z,3.30
2022-10-21T11:50:05.529Z,3.30
2022-10-21T11:55:46.091Z,3.00
2022-10-21T12:01:56.637Z,3.17
2022-10-21T12:07:44.707Z,3.20
2022-10-21T12:13:25.224Z,2.70
2022-10-21T12:18:58.958Z,3.45
2022-10-21T12:25:08.818Z,3.40
2022-10-21T12:30:39.718Z,3.28
2022-10-21T12:36:13.585Z,3.55
2022-10-21T12:41:47.053Z,3.40
2022-10-21T12:47:44.111Z,3.08
2022-10-21T12:53:42.268Z,3.13
2022-10-21T12:59:38.121Z,3.08
2022-10-21T13:05:09.360Z,3.35
2022-10-21T13:10:40.548Z,3.38
2022-10-21T13:16:20.827Z,3.13
2022-10-21T13:22:10.739Z,3.40
2022-10-21T13:27:47.129Z,3.35
2022-10-21T13:33:22.947Z,3.20
2022-10-21T13:38:55.675Z,3.67
2022-10-21T13:44:43.751Z,3.08
2022-10-21T13:50:28.673Z,3.35
2022-10-21T13:56:05.348Z,3.17
2022-10-21T14:01:56.468Z,3.20
2022-10-21T14:07:28.328Z,3.20
2022-10-21T14:18:45.602Z,3.58
2022-10-21T14:24:37.023Z,3.70
2022-10-21T14:30:11.931Z,3.92
2022-10-21T14:35:43.123Z,3.78
2022-10-21T14:41:18.169Z,3.72
2022-10-21T14:46:51.412Z,4.30
2022-10-21T14:52:25.424Z,4.00
2022-10-21T14:58:03.186Z,4.03
2022-10-21T15:03:47.799Z,4.00
2022-10-21T15:09:20.172Z,4.00
2022-10-21T15:14:51.647Z,3.97
2022-10-21T15:20:24.584Z,3.90
2022-10-21T15:26:23.801Z,3.87
2022-10-21T15:31:57.308Z,4.10
2022-10-21T15:37:28.543Z,3.83
2022-10-21T15:42:59.671Z,3.80
2022-10-21T15:48:30.864Z,4.45
2022-10-21T15:54:01.747Z,4.35
2022-10-21T15:59:33.836Z,3.83
2022-10-21T16:05:05.430Z,4.53
2022-10-21T16:10:37.383Z,4.55
2022-10-21T16:16:27.656Z,4.95
2022-10-21T16:21:58.881Z,4.63
2022-10-21T16:27:43.736Z,4.65
2022-10-21T16:33:21.491Z,5.18
2022-10-21T16:38:53.409Z,4.82
2022-10-21T16:44:24.692Z,4.93
2022-10-21T16:49:58.310Z,4.63
2022-10-21T17:01:00.407Z,5.22
2022-10-21T17:06:31.826Z,5.40
2022-10-21T17:12:04.637Z,5.88
2022-10-21T17:17:37.090Z,5.07
2022-10-21T17:23:10.908Z,4.57
2022-10-21T17:28:41.868Z,4.53
2022-10-21T17:34:25.836Z,5.22
2022-10-21T17:39:57.135Z,5.15
2022-10-21T17:45:28.421Z,5.00
2022-10-21T17:51:02.059Z,4.88
2022-10-21T17:56:33.104Z,5.25
2022-10-21T18:02:04.344Z,5.43
2022-10-21T18:07:35.615Z,4.75
2022-10-21T18:13:06.492Z,5.07
2022-10-21T18:18:38.422Z,5.63
2022-10-21T18:24:12.471Z,5.32
2022-10-21T18:29:44.164Z,4.90
2022-10-21T18:35:16.066Z,5.45
2022-10-21T18:40:56.298Z,5.32
2022-10-21T18:46:34.884Z,5.80
2022-10-21T18:52:06.143Z,5.32
2022-10-21T18:57:37.324Z,5.85
2022-10-21T19:03:08.953Z,5.75
2022-10-21T19:08:39.961Z,5.72
2022-10-21T19:14:14.154Z,5.53
2022-10-21T19:19:45.958Z,5.93
2022-10-21T19:25:17.933Z,5.53
2022-10-21T19:30:49.176Z,5.63
2022-10-21T19:36:20.442Z,5.70
2022-10-21T19:41:51.877Z,5.82
2022-10-21T19:47:23.199Z,5.50
2022-10-21T19:52:54.107Z,6.25
2022-10-21T19:58:25.325Z,5.70
2022-10-21T20:03:56.252Z,6.32
2022-10-21T20:09:27.385Z,5.90
2022-10-21T20:14:58.412Z,5.57
2022-10-21T20:20:29.558Z,5.60
2022-10-21T20:26:00.510Z,6.10
2022-10-21T20:31:31.574Z,5.43
2022-10-21T20:37:02.921Z,5.75
2022-10-21T20:42:34.486Z,6.00
2022-10-21T20:48:05.516Z,6.25
2022-10-21T20:53:37.324Z,5.25
2022-10-21T20:59:12.421Z,6.07
2022-10-21T21:04:43.426Z,5.45
2022-10-21T21:10:14.505Z,5.28
2022-10-21T21:15:45.756Z,5.75
2022-10-21T21:21:18.637Z,5.55
2022-10-21T21:26:50.422Z,5.75
2022-10-21T21:32:21.674Z,5.28
2022-10-21T21:37:52.934Z,5.75
2022-10-21T21:43:23.970Z,6.70
2022-10-21T21:49:04.768Z,5.55
2022-10-21T21:54:36.513Z,6.43
2022-10-21T22:00:08.239Z,6.20
2022-10-21T22:05:40.193Z,5.88
2022-10-21T22:11:13.690Z,6.18
2022-10-21T22:22:15.811Z,6.68
2022-10-21T22:27:46.611Z,6.85
2022-10-21T22:33:17.917Z,6.55
2022-10-21T22:38:48.993Z,8.02
2022-10-21T22:44:22.422Z,6.30
2022-10-21T22:49:53.551Z,6.80
2022-10-21T22:55:24.821Z,6.55
2022-10-21T23:06:33.938Z,7.43
2022-10-21T23:12:05.173Z,6.72
2022-10-21T23:17:36.455Z,6.80
2022-10-21T23:23:07.746Z,6.68
2022-10-21T23:28:38.903Z,6.38
2022-10-21T23:34:10.482Z,7.38
2022-10-21T23:39:41.634Z,6.80
2022-10-21T23:45:12.732Z,6.40
2022-10-21T23:50:44.680Z,5.78
2022-10-21T23:56:16.413Z,6.63
